sensor_id;sensor_type;location;lat;lon;timestamp;temperature;humidity
45233;DHT22;30969;51.052;17.056;2022-11-14T00:01:05;7.80;78.80
45233;DHT22;30969;51.052;17.056;2022-11-14T00:06:11;7.80;79.00
45233;DHT22;30969;51.052;17.056;2022-11-14T00:11:14;7.80;78.80
45233;DHT22;30969;51.052;17.056;2022-11-14T00:16:18;7.80;78.80
45233;DHT22;30969;51.052;17.056;2022-11-14T00:21:23;7.90;78.80
45233;DHT22;30969;51.052;17.056;2022-11-14T00:26:26;7.90;78.90
45233;DHT22;30969;51.052;17.056;2022-11-14T00:31:29;7.90;78.70
45233;DHT22;30969;51.052;17.056;2022-11-14T00:36:35;7.90;78.70
45233;DHT22;30969;51.052;17.056;2022-11-14T00:41:39;7.80;78.90
45233;DHT22;30969;51.052;17.056;2022-11-14T00:46:42;7.80;78.90
45233;DHT22;30969;51.052;17.056;2022-11-14T00:51:47;7.80;79.00
45233;DHT22;30969;51.052;17.056;2022-11-14T00:56:50;7.80;78.90
45233;DHT22;30969;51.052;17.056;2022-11-14T01:01:54;7.80;79.00
45233;DHT22;30969;51.052;17.056;2022-11-14T01:07:00;7.80;79.00
45233;DHT22;30969;51.052;17.056;2022-11-14T01:12:04;7.80;79.00
45233;DHT22;30969;51.052;17.056;2022-11-14T01:17:08;7.80;79.00
45233;DHT22;30969;51.052;17.056;2022-11-14T01:22:12;7.80;78.80
45233;DHT22;30969;51.052;17.056;2022-11-14T01:27:16;7.80;78.80
45233;DHT22;30969;51.052;17.056;2022-11-14T01:32:19;7.80;78.90
45233;DHT22;30969;51.052;17.056;2022-11-14T01:37:24;7.70;78.80
45233;DHT22;30969;51.052;17.056;2022-11-14T01:42:28;7.70;78.70
45233;DHT22;30969;51.052;17.056;2022-11-14T01:47:32;7.60;78.50
45233;DHT22;30969;51.052;17.056;2022-11-14T01:52:38;7.70;78.50
45233;DHT22;30969;51.052;17.056;2022-11-14T01:57:45;7.60;78.60
45233;DHT22;30969;51.052;17.056;2022-11-14T02:02:49;7.50;78.50
45233;DHT22;30969;51.052;17.056;2022-11-14T02:07:54;7.50;78.80
45233;DHT22;30969;51.052;17.056;2022-11-14T02:12:57;7.50;78.90
45233;DHT22;30969;51.052;17.056;2022-11-14T02:18:01;7.60;78.90
45233;DHT22;30969;51.052;17.056;2022-11-14T02:23:06;7.60;79.10
45233;DHT22;30969;51.052;17.056;2022-11-14T02:28:10;7.60;79.20
45233;DHT22;30969;51.052;17.056;2022-11-14T02:33:13;7.50;79.20
45233;DHT22;30969;51.052;17.056;2022-11-14T02:38:19;7.50;79.10
45233;DHT22;30969;51.052;17.056;2022-11-14T02:43:22;7.50;80.00
45233;DHT22;30969;51.052;17.056;2022-11-14T02:48:26;7.50;78.90
45233;DHT22;30969;51.052;17.056;2022-11-14T02:53:31;7.40;79.20
45233;DHT22;30969;51.052;17.056;2022-11-14T02:58:34;7.30;79.40
45233;DHT22;30969;51.052;17.056;2022-11-14T03:03:38;7.30;79.60
45233;DHT22;30969;51.052;17.056;2022-11-14T03:08:42;7.40;79.70
45233;DHT22;30969;51.052;17.056;2022-11-14T03:13:46;7.40;79.50
45233;DHT22;30969;51.052;17.056;2022-11-14T03:18:49;7.40;79.70
45233;DHT22;30969;51.052;17.056;2022-11-14T03:23:54;7.40;79.90
45233;DHT22;30969;51.052;17.056;2022-11-14T03:28:57;7.40;79.80
45233;DHT22;30969;51.052;17.056;2022-11-14T03:34:01;7.50;79.90
45233;DHT22;30969;51.052;17.056;2022-11-14T03:39:06;7.50;80.00
45233;DHT22;30969;51.052;17.056;2022-11-14T03:44:09;7.50;80.00
45233;DHT22;30969;51.052;17.056;2022-11-14T03:49:13;7.60;80.20
45233;DHT22;30969;51.052;17.056;2022-11-14T03:54:17;7.60;80.20
45233;DHT22;30969;51.052;17.056;2022-11-14T03:59:21;7.60;80.50
45233;DHT22;30969;51.052;17.056;2022-11-14T04:04:24;7.70;80.50
45233;DHT22;30969;51.052;17.056;2022-11-14T04:09:29;7.70;80.20
45233;DHT22;30969;51.052;17.056;2022-11-14T04:14:33;7.70;80.20
45233;DHT22;30969;51.052;17.056;2022-11-14T04:19:36;7.80;80.20
45233;DHT22;30969;51.052;17.056;2022-11-14T04:24:41;7.80;80.30
45233;DHT22;30969;51.052;17.056;2022-11-14T04:29:44;7.80;80.30
45233;DHT22;30969;51.052;17.056;2022-11-14T04:34:48;7.90;80.20
45233;DHT22;30969;51.052;17.056;2022-11-14T04:39:53;7.90;80.10
45233;DHT22;30969;51.052;17.056;2022-11-14T04:44:59;7.90;80.10
45233;DHT22;30969;51.052;17.056;2022-11-14T04:50:04;7.90;80.20
45233;DHT22;30969;51.052;17.056;2022-11-14T04:55:09;7.90;80.10
45233;DHT22;30969;51.052;17.056;2022-11-14T05:00:13;7.90;80.20
45233;DHT22;30969;51.052;17.056;2022-11-14T05:05:17;7.90;80.20
45233;DHT22;30969;51.052;17.056;2022-11-14T05:10:22;7.90;80.30
45233;DHT22;30969;51.052;17.056;2022-11-14T05:15:25;8.00;80.40
45233;DHT22;30969;51.052;17.056;2022-11-14T05:20:29;7.90;80.30
45233;DHT22;30969;51.052;17.056;2022-11-14T05:25:34;8.00;80.30
45233;DHT22;30969;51.052;17.056;2022-11-14T05:30:37;8.00;81.20
45233;DHT22;30969;51.052;17.056;2022-11-14T05:35:41;8.00;80.20
45233;DHT22;30969;51.052;17.056;2022-11-14T05:40:46;8.00;80.30
45233;DHT22;30969;51.052;17.056;2022-11-14T05:45:49;8.00;80.30
45233;DHT22;30969;51.052;17.056;2022-11-14T05:50:53;8.00;80.40
45233;DHT22;30969;51.052;17.056;2022-11-14T05:56:01;8.00;80.50
45233;DHT22;30969;51.052;17.056;2022-11-14T06:01:06;8.00;80.50
45233;DHT22;30969;51.052;17.056;2022-11-14T06:06:12;8.00;80.40
45233;DHT22;30969;51.052;17.056;2022-11-14T06:11:19;8.10;80.30
45233;DHT22;30969;51.052;17.056;2022-11-14T06:16:22;8.10;80.40
45233;DHT22;30969;51.052;17.056;2022-11-14T06:21:26;8.10;80.40
45233;DHT22;30969;51.052;17.056;2022-11-14T06:26:31;8.10;80.30
45233;DHT22;30969;51.052;17.056;2022-11-14T06:31:35;8.10;80.20
45233;DHT22;30969;51.052;17.056;2022-11-14T06:36:38;8.10;80.20
45233;DHT22;30969;51.052;17.056;2022-11-14T06:41:43;8.10;80.10
45233;DHT22;30969;51.052;17.056;2022-11-14T06:46:47;8.10;80.20
45233;DHT22;30969;51.052;17.056;2022-11-14T06:51:51;8.20;80.20
45233;DHT22;30969;51.052;17.056;2022-11-14T06:56:55;8.20;80.10
45233;DHT22;30969;51.052;17.056;2022-11-14T07:01:59;8.10;80.20
45233;DHT22;30969;51.052;17.056;2022-11-14T07:07:02;8.20;80.20
45233;DHT22;30969;51.052;17.056;2022-11-14T07:12:08;8.20;80.10
45233;DHT22;30969;51.052;17.056;2022-11-14T07:17:11;8.30;80.20
45233;DHT22;30969;51.052;17.056;2022-11-14T07:22:15;8.30;80.20
45233;DHT22;30969;51.052;17.056;2022-11-14T07:27:20;8.30;80.20
45233;DHT22;30969;51.052;17.056;2022-11-14T07:32:23;8.30;80.20
45233;DHT22;30969;51.052;17.056;2022-11-14T07:37:27;8.30;80.30
45233;DHT22;30969;51.052;17.056;2022-11-14T07:42:31;8.30;80.30
45233;DHT22;30969;51.052;17.056;2022-11-14T07:47:35;8.30;80.40
45233;DHT22;30969;51.052;17.056;2022-11-14T07:52:38;8.40;80.50
45233;DHT22;30969;51.052;17.056;2022-11-14T07:57:44;8.40;80.20
45233;DHT22;30969;51.052;17.056;2022-11-14T08:02:50;8.40;80.30
45233;DHT22;30969;51.052;17.056;2022-11-14T08:07:54;8.50;80.40
45233;DHT22;30969;51.052;17.056;2022-11-14T08:12:59;8.50;80.20
45233;DHT22;30969;51.052;17.056;2022-11-14T08:18:23;8.50;80.20
45233;DHT22;30969;51.052;17.056;2022-11-14T08:23:26;8.50;80.10
45233;DHT22;30969;51.052;17.056;2022-11-14T08:28:31;8.50;80.30
45233;DHT22;30969;51.052;17.056;2022-11-14T08:33:35;8.60;80.40
45233;DHT22;30969;51.052;17.056;2022-11-14T08:38:38;8.60;80.30
45233;DHT22;30969;51.052;17.056;2022-11-14T08:43:44;8.60;80.60
45233;DHT22;30969;51.052;17.056;2022-11-14T08:48:47;8.60;80.50
45233;DHT22;30969;51.052;17.056;2022-11-14T08:53:51;8.60;80.50
45233;DHT22;30969;51.052;17.056;2022-11-14T08:58:55;8.70;80.50
45233;DHT22;30969;51.052;17.056;2022-11-14T09:03:59;8.70;80.40
45233;DHT22;30969;51.052;17.056;2022-11-14T09:09:03;8.70;80.30
45233;DHT22;30969;51.052;17.056;2022-11-14T09:14:08;8.70;80.40
45233;DHT22;30969;51.052;17.056;2022-11-14T09:19:11;8.70;80.40
45233;DHT22;30969;51.052;17.056;2022-11-14T09:24:14;8.70;80.30
45233;DHT22;30969;51.052;17.056;2022-11-14T09:29:20;8.80;80.50
45233;DHT22;30969;51.052;17.056;2022-11-14T09:34:23;8.80;80.30
45233;DHT22;30969;51.052;17.056;2022-11-14T09:39:27;8.80;80.50
45233;DHT22;30969;51.052;17.056;2022-11-14T09:44:54;8.80;81.20
45233;DHT22;30969;51.052;17.056;2022-11-14T09:50:03;8.90;81.30
45233;DHT22;30969;51.052;17.056;2022-11-14T09:55:10;8.90;81.10
45233;DHT22;30969;51.052;17.056;2022-11-14T10:00:18;9.00;80.90
45233;DHT22;30969;51.052;17.056;2022-11-14T10:05:44;9.00;80.70
45233;DHT22;30969;51.052;17.056;2022-11-14T10:10:52;9.00;80.70
45233;DHT22;30969;51.052;17.056;2022-11-14T10:16:02;9.10;80.70
45233;DHT22;30969;51.052;17.056;2022-11-14T10:21:17;9.20;80.60
45233;DHT22;30969;51.052;17.056;2022-11-14T10:26:26;9.20;80.60
45233;DHT22;30969;51.052;17.056;2022-11-14T10:31:40;9.30;80.50
45233;DHT22;30969;51.052;17.056;2022-11-14T10:36:53;9.30;80.50
45233;DHT22;30969;51.052;17.056;2022-11-14T10:42:01;9.40;80.50
45233;DHT22;30969;51.052;17.056;2022-11-14T10:47:13;9.50;80.50
45233;DHT22;30969;51.052;17.056;2022-11-14T10:52:20;9.50;80.50
45233;DHT22;30969;51.052;17.056;2022-11-14T10:57:26;9.60;80.50
45233;DHT22;30969;51.052;17.056;2022-11-14T11:02:47;9.60;80.50
45233;DHT22;30969;51.052;17.056;2022-11-14T11:07:51;9.60;80.50
45233;DHT22;30969;51.052;17.056;2022-11-14T11:13:33;9.70;80.60
45233;DHT22;30969;51.052;17.056;2022-11-14T11:18:39;9.80;80.50
45233;DHT22;30969;51.052;17.056;2022-11-14T11:23:48;9.90;80.50
45233;DHT22;30969;51.052;17.056;2022-11-14T11:29:07;10.00;80.50
45233;DHT22;30969;51.052;17.056;2022-11-14T11:34:22;10.10;80.70
45233;DHT22;30969;51.052;17.056;2022-11-14T11:39:28;10.30;81.00
45233;DHT22;30969;51.052;17.056;2022-11-14T11:44:36;10.40;81.00
45233;DHT22;30969;51.052;17.056;2022-11-14T11:49:45;10.60;81.20
45233;DHT22;30969;51.052;17.056;2022-11-14T11:54:59;10.80;81.20
45233;DHT22;30969;51.052;17.056;2022-11-14T12:00:06;10.90;81.10
45233;DHT22;30969;51.052;17.056;2022-11-14T12:05:25;11.10;81.10
45233;DHT22;30969;51.052;17.056;2022-11-14T12:10:33;11.20;81.20
45233;DHT22;30969;51.052;17.056;2022-11-14T12:15:46;11.40;80.90
45233;DHT22;30969;51.052;17.056;2022-11-14T12:21:09;11.60;80.70
45233;DHT22;30969;51.052;17.056;2022-11-14T12:26:40;11.80;80.50
45233;DHT22;30969;51.052;17.056;2022-11-14T12:31:55;11.90;80.40
45233;DHT22;30969;51.052;17.056;2022-11-14T12:37:07;12.10;80.40
45233;DHT22;30969;51.052;17.056;2022-11-14T12:42:12;12.30;80.20
45233;DHT22;30969;51.052;17.056;2022-11-14T12:47:22;12.40;79.70
45233;DHT22;30969;51.052;17.056;2022-11-14T12:52:47;12.50;79.50
45233;DHT22;30969;51.052;17.056;2022-11-14T12:57:58;12.70;79.40
45233;DHT22;30969;51.052;17.056;2022-11-14T13:03:19;12.80;79.10
45233;DHT22;30969;51.052;17.056;2022-11-14T13:08:56;12.90;78.90
45233;DHT22;30969;51.052;17.056;2022-11-14T13:14:07;13.10;78.80
45233;DHT22;30969;51.052;17.056;2022-11-14T13:19:28;13.20;78.50
45233;DHT22;30969;51.052;17.056;2022-11-14T13:25:16;13.40;78.50
45233;DHT22;30969;51.052;17.056;2022-11-14T13:35:57;13.60;77.50
45233;DHT22;30969;51.052;17.056;2022-11-14T13:41:29;13.60;77.20
45233;DHT22;30969;51.052;17.056;2022-11-14T13:52:23;13.60;76.30
45233;DHT22;30969;51.052;17.056;2022-11-14T13:57:39;13.50;76.20
45233;DHT22;30969;51.052;17.056;2022-11-14T14:03:10;13.50;76.30
45233;DHT22;30969;51.052;17.056;2022-11-14T14:08:33;13.50;76.10
45233;DHT22;30969;51.052;17.056;2022-11-14T14:13:48;13.40;75.90
45233;DHT22;30969;51.052;17.056;2022-11-14T14:19:00;13.40;76.00
45233;DHT22;30969;51.052;17.056;2022-11-14T14:24:16;13.30;75.50
45233;DHT22;30969;51.052;17.056;2022-11-14T14:29:23;13.20;75.60
45233;DHT22;30969;51.052;17.056;2022-11-14T14:34:29;13.20;75.60
45233;DHT22;30969;51.052;17.056;2022-11-14T14:39:33;13.10;75.50
45233;DHT22;30969;51.052;17.056;2022-11-14T14:44:38;13.00;75.60
45233;DHT22;30969;51.052;17.056;2022-11-14T14:49:42;13.00;75.50
45233;DHT22;30969;51.052;17.056;2022-11-14T14:54:53;12.90;75.40
45233;DHT22;30969;51.052;17.056;2022-11-14T15:00:04;12.90;75.40
45233;DHT22;30969;51.052;17.056;2022-11-14T15:05:08;12.80;75.30
45233;DHT22;30969;51.052;17.056;2022-11-14T15:10:20;12.80;75.30
45233;DHT22;30969;51.052;17.056;2022-11-14T15:15:26;12.70;75.20
45233;DHT22;30969;51.052;17.056;2022-11-14T15:20:30;12.60;75.30
45233;DHT22;30969;51.052;17.056;2022-11-14T15:25:33;12.60;75.40
45233;DHT22;30969;51.052;17.056;2022-11-14T15:30:38;12.50;75.50
45233;DHT22;30969;51.052;17.056;2022-11-14T15:35:41;12.50;75.50
45233;DHT22;30969;51.052;17.056;2022-11-14T15:41:08;12.40;75.40
45233;DHT22;30969;51.052;17.056;2022-11-14T15:46:33;12.40;75.60
45233;DHT22;30969;51.052;17.056;2022-11-14T15:51:41;12.30;75.60
45233;DHT22;30969;51.052;17.056;2022-11-14T15:56:46;12.30;75.50
45233;DHT22;30969;51.052;17.056;2022-11-14T16:01:52;12.30;75.50
45233;DHT22;30969;51.052;17.056;2022-11-14T16:06:56;12.20;75.40
45233;DHT22;30969;51.052;17.056;2022-11-14T16:12:00;12.20;75.30
45233;DHT22;30969;51.052;17.056;2022-11-14T16:17:05;12.10;75.40
45233;DHT22;30969;51.052;17.056;2022-11-14T16:22:15;12.10;75.40
45233;DHT22;30969;51.052;17.056;2022-11-14T16:27:19;12.00;75.40
45233;DHT22;30969;51.052;17.056;2022-11-14T16:32:24;11.90;75.30
45233;DHT22;30969;51.052;17.056;2022-11-14T16:37:29;11.80;75.50
45233;DHT22;30969;51.052;17.056;2022-11-14T16:42:33;11.70;75.60
45233;DHT22;30969;51.052;17.056;2022-11-14T16:47:38;11.70;75.70
45233;DHT22;30969;51.052;17.056;2022-11-14T16:52:47;11.70;75.70
45233;DHT22;30969;51.052;17.056;2022-11-14T16:57:50;11.60;75.70
45233;DHT22;30969;51.052;17.056;2022-11-14T17:02:55;11.60;75.80
45233;DHT22;30969;51.052;17.056;2022-11-14T17:07:58;11.60;75.80
45233;DHT22;30969;51.052;17.056;2022-11-14T17:13:02;11.50;75.80
45233;DHT22;30969;51.052;17.056;2022-11-14T17:18:07;11.50;75.70
45233;DHT22;30969;51.052;17.056;2022-11-14T17:23:10;11.40;75.50
45233;DHT22;30969;51.052;17.056;2022-11-14T17:28:14;11.40;75.40
45233;DHT22;30969;51.052;17.056;2022-11-14T17:33:19;11.30;75.40
45233;DHT22;30969;51.052;17.056;2022-11-14T17:38:22;11.20;75.50
45233;DHT22;30969;51.052;17.056;2022-11-14T17:43:26;11.20;75.70
45233;DHT22;30969;51.052;17.056;2022-11-14T17:48:39;11.10;75.70
45233;DHT22;30969;51.052;17.056;2022-11-14T17:53:43;11.00;75.40
45233;DHT22;30969;51.052;17.056;2022-11-14T17:58:48;10.90;75.60
45233;DHT22;30969;51.052;17.056;2022-11-14T18:03:54;10.90;75.80
45233;DHT22;30969;51.052;17.056;2022-11-14T18:09:05;10.90;75.90
45233;DHT22;30969;51.052;17.056;2022-11-14T18:14:15;10.90;75.70
45233;DHT22;30969;51.052;17.056;2022-11-14T18:19:20;10.80;75.70
45233;DHT22;30969;51.052;17.056;2022-11-14T18:24:23;10.80;75.40
45233;DHT22;30969;51.052;17.056;2022-11-14T18:29:27;10.70;75.50
45233;DHT22;30969;51.052;17.056;2022-11-14T18:34:34;10.60;75.60
45233;DHT22;30969;51.052;17.056;2022-11-14T18:39:38;10.50;75.60
45233;DHT22;30969;51.052;17.056;2022-11-14T18:44:42;10.50;75.80
45233;DHT22;30969;51.052;17.056;2022-11-14T18:49:46;10.50;75.90
45233;DHT22;30969;51.052;17.056;2022-11-14T18:54:50;10.50;75.90
45233;DHT22;30969;51.052;17.056;2022-11-14T18:59:53;10.50;75.90
45233;DHT22;30969;51.052;17.056;2022-11-14T19:04:58;10.40;75.80
45233;DHT22;30969;51.052;17.056;2022-11-14T19:10:03;10.40;75.70
45233;DHT22;30969;51.052;17.056;2022-11-14T19:15:07;10.40;75.80
45233;DHT22;30969;51.052;17.056;2022-11-14T19:20:13;10.30;75.80
45233;DHT22;30969;51.052;17.056;2022-11-14T19:25:17;10.30;75.80
45233;DHT22;30969;51.052;17.056;2022-11-14T19:30:22;10.30;75.90
45233;DHT22;30969;51.052;17.056;2022-11-14T19:35:27;10.30;75.80
45233;DHT22;30969;51.052;17.056;2022-11-14T19:42:11;10.20;75.10
45233;DHT22;30969;51.052;17.056;2022-11-14T19:47:15;10.10;75.90
45233;DHT22;30969;51.052;17.056;2022-11-14T19:52:18;10.10;75.80
45233;DHT22;30969;51.052;17.056;2022-11-14T19:57:23;10.00;75.90
45233;DHT22;30969;51.052;17.056;2022-11-14T20:02:26;10.00;76.00
45233;DHT22;30969;51.052;17.056;2022-11-14T20:07:31;10.00;76.10
45233;DHT22;30969;51.052;17.056;2022-11-14T20:12:37;10.00;76.20
45233;DHT22;30969;51.052;17.056;2022-11-14T20:17:41;10.00;76.10
45233;DHT22;30969;51.052;17.056;2022-11-14T20:22:45;9.90;76.10
45233;DHT22;30969;51.052;17.056;2022-11-14T20:27:50;9.90;76.20
45233;DHT22;30969;51.052;17.056;2022-11-14T20:32:53;9.80;76.20
45233;DHT22;30969;51.052;17.056;2022-11-14T20:37:57;9.80;76.10
45233;DHT22;30969;51.052;17.056;2022-11-14T20:43:07;9.70;76.10
45233;DHT22;30969;51.052;17.056;2022-11-14T20:48:11;9.70;76.30
45233;DHT22;30969;51.052;17.056;2022-11-14T20:53:14;9.70;76.20
45233;DHT22;30969;51.052;17.056;2022-11-14T20:58:19;9.70;76.30
45233;DHT22;30969;51.052;17.056;2022-11-14T21:03:23;9.70;76.10
45233;DHT22;30969;51.052;17.056;2022-11-14T21:08:27;9.70;76.10
45233;DHT22;30969;51.052;17.056;2022-11-14T21:13:34;9.60;76.00
45233;DHT22;30969;51.052;17.056;2022-11-14T21:18:56;9.60;75.90
45233;DHT22;30969;51.052;17.056;2022-11-14T21:23:59;9.50;75.70
45233;DHT22;30969;51.052;17.056;2022-11-14T21:29:05;9.40;75.90
45233;DHT22;30969;51.052;17.056;2022-11-14T21:34:11;9.30;76.30
45233;DHT22;30969;51.052;17.056;2022-11-14T21:39:15;9.30;76.30
45233;DHT22;30969;51.052;17.056;2022-11-14T21:44:20;9.20;76.20
45233;DHT22;30969;51.052;17.056;2022-11-14T21:49:24;9.10;76.50
45233;DHT22;30969;51.052;17.056;2022-11-14T21:54:27;9.00;76.50
45233;DHT22;30969;51.052;17.056;2022-11-14T21:59:32;9.00;76.80
45233;DHT22;30969;51.052;17.056;2022-11-14T22:04:36;8.90;77.00
45233;DHT22;30969;51.052;17.056;2022-11-14T22:09:39;8.90;77.10
45233;DHT22;30969;51.052;17.056;2022-11-14T22:14:48;8.90;77.40
45233;DHT22;30969;51.052;17.056;2022-11-14T22:19:51;8.90;77.30
45233;DHT22;30969;51.052;17.056;2022-11-14T22:24:55;8.90;77.10
45233;DHT22;30969;51.052;17.056;2022-11-14T22:30:01;8.90;77.20
45233;DHT22;30969;51.052;17.056;2022-11-14T22:35:05;8.80;77.00
45233;DHT22;30969;51.052;17.056;2022-11-14T22:40:10;8.80;77.10
45233;DHT22;30969;51.052;17.056;2022-11-14T22:45:15;8.70;77.30
45233;DHT22;30969;51.052;17.056;2022-11-14T22:50:18;8.60;77.60
45233;DHT22;30969;51.052;17.056;2022-11-14T22:55:22;8.60;77.70
45233;DHT22;30969;51.052;17.056;2022-11-14T23:00:26;8.70;77.70
45233;DHT22;30969;51.052;17.056;2022-11-14T23:05:33;8.70;77.60
45233;DHT22;30969;51.052;17.056;2022-11-14T23:10:37;8.70;77.40
45233;DHT22;30969;51.052;17.056;2022-11-14T23:15:46;8.70;77.40
45233;DHT22;30969;51.052;17.056;2022-11-14T23:20:50;8.70;77.60
45233;DHT22;30969;51.052;17.056;2022-11-14T23:25:53;8.70;77.50
45233;DHT22;30969;51.052;17.056;2022-11-14T23:30:58;8.70;77.60
45233;DHT22;30969;51.052;17.056;2022-11-14T23:36:02;8.70;77.60
45233;DHT22;30969;51.052;17.056;2022-11-14T23:41:06;8.70;77.50
45233;DHT22;30969;51.052;17.056;2022-11-14T23:46:11;8.70;77.40
45233;DHT22;30969;51.052;17.056;2022-11-14T23:51:14;8.60;77.10
45233;DHT22;30969;51.052;17.056;2022-11-14T23:56:18;8.70;77.10
